sensor_id;sensor_type;location;lat;lon;timestamp;P1;durP1;ratioP1;P2;durP2;ratioP2
69953;SDS011;57276;51.364;12.376;2022-09-09T00:02:37;3.25;;;1.60;;
69953;SDS011;57276;51.364;12.376;2022-09-09T00:14:47;5.75;;;1.98;;
69953;SDS011;57276;51.364;12.376;2022-09-09T00:20:56;5.53;;;1.90;;
69953;SDS011;57276;51.364;12.376;2022-09-09T00:27:09;4.17;;;1.47;;
69953;SDS011;57276;51.364;12.376;2022-09-09T00:33:13;5.00;;;1.92;;
69953;SDS011;57276;51.364;12.376;2022-09-09T00:39:25;4.50;;;1.67;;
69953;SDS011;57276;51.364;12.376;2022-09-09T00:45:40;4.07;;;1.60;;
69953;SDS011;57276;51.364;12.376;2022-09-09T00:57:51;5.40;;;1.63;;
69953;SDS011;57276;51.364;12.376;2022-09-09T01:03:54;4.68;;;1.85;;
69953;SDS011;57276;51.364;12.376;2022-09-09T01:09:59;3.53;;;1.47;;
69953;SDS011;57276;51.364;12.376;2022-09-09T01:16:03;5.18;;;1.42;;
69953;SDS011;57276;51.364;12.376;2022-09-09T01:28:16;5.70;;;1.60;;
69953;SDS011;57276;51.364;12.376;2022-09-09T01:34:19;4.25;;;1.58;;
69953;SDS011;57276;51.364;12.376;2022-09-09T01:40:21;3.97;;;1.50;;
69953;SDS011;57276;51.364;12.376;2022-09-09T01:46:23;5.28;;;1.60;;
69953;SDS011;57276;51.364;12.376;2022-09-09T01:52:26;4.50;;;1.60;;
69953;SDS011;57276;51.364;12.376;2022-09-09T01:58:34;4.53;;;1.60;;
69953;SDS011;57276;51.364;12.376;2022-09-09T02:04:43;4.15;;;1.60;;
69953;SDS011;57276;51.364;12.376;2022-09-09T02:10:58;5.87;;;1.70;;
69953;SDS011;57276;51.364;12.376;2022-09-09T02:17:13;4.97;;;1.77;;
69953;SDS011;57276;51.364;12.376;2022-09-09T02:23:32;5.20;;;1.70;;
69953;SDS011;57276;51.364;12.376;2022-09-09T02:29:41;5.47;;;1.70;;
69953;SDS011;57276;51.364;12.376;2022-09-09T02:35:44;6.47;;;1.70;;
69953;SDS011;57276;51.364;12.376;2022-09-09T02:41:50;4.90;;;1.43;;
69953;SDS011;57276;51.364;12.376;2022-09-09T02:48:00;4.00;;;1.55;;
69953;SDS011;57276;51.364;12.376;2022-09-09T03:00:09;7.30;;;1.60;;
69953;SDS011;57276;51.364;12.376;2022-09-09T03:06:13;6.30;;;1.80;;
69953;SDS011;57276;51.364;12.376;2022-09-09T03:12:17;7.67;;;1.60;;
69953;SDS011;57276;51.364;12.376;2022-09-09T03:18:19;4.70;;;1.52;;
69953;SDS011;57276;51.364;12.376;2022-09-09T03:24:24;7.20;;;1.70;;
69953;SDS011;57276;51.364;12.376;2022-09-09T03:30:27;4.47;;;1.80;;
69953;SDS011;57276;51.364;12.376;2022-09-09T03:36:30;5.68;;;1.70;;
69953;SDS011;57276;51.364;12.376;2022-09-09T03:42:32;5.93;;;1.53;;
69953;SDS011;57276;51.364;12.376;2022-09-09T03:48:34;5.72;;;1.60;;
69953;SDS011;57276;51.364;12.376;2022-09-09T03:54:37;4.28;;;1.60;;
69953;SDS011;57276;51.364;12.376;2022-09-09T04:00:39;5.07;;;1.60;;
69953;SDS011;57276;51.364;12.376;2022-09-09T04:06:44;4.68;;;1.60;;
69953;SDS011;57276;51.364;12.376;2022-09-09T04:12:46;4.03;;;1.50;;
69953;SDS011;57276;51.364;12.376;2022-09-09T04:18:50;5.15;;;1.60;;
69953;SDS011;57276;51.364;12.376;2022-09-09T04:24:53;4.70;;;1.50;;
69953;SDS011;57276;51.364;12.376;2022-09-09T04:30:55;6.50;;;1.60;;
69953;SDS011;57276;51.364;12.376;2022-09-09T04:36:58;5.35;;;1.38;;
69953;SDS011;57276;51.364;12.376;2022-09-09T04:43:02;6.17;;;1.40;;
69953;SDS011;57276;51.364;12.376;2022-09-09T04:49:07;6.45;;;1.40;;
69953;SDS011;57276;51.364;12.376;2022-09-09T04:55:14;4.57;;;1.33;;
69953;SDS011;57276;51.364;12.376;2022-09-09T05:01:19;3.73;;;1.40;;
69953;SDS011;57276;51.364;12.376;2022-09-09T05:07:22;3.42;;;1.50;;
69953;SDS011;57276;51.364;12.376;2022-09-09T05:13:25;5.17;;;1.60;;
69953;SDS011;57276;51.364;12.376;2022-09-09T05:19:27;3.55;;;1.45;;
69953;SDS011;57276;51.364;12.376;2022-09-09T05:25:29;4.18;;;1.42;;
69953;SDS011;57276;51.364;12.376;2022-09-09T05:31:31;4.27;;;1.40;;
69953;SDS011;57276;51.364;12.376;2022-09-09T05:37:36;5.45;;;1.55;;
69953;SDS011;57276;51.364;12.376;2022-09-09T05:43:38;3.57;;;1.53;;
69953;SDS011;57276;51.364;12.376;2022-09-09T05:49:40;4.55;;;1.75;;
69953;SDS011;57276;51.364;12.376;2022-09-09T05:55:42;4.53;;;1.70;;
69953;SDS011;57276;51.364;12.376;2022-09-09T06:01:44;4.63;;;1.40;;
69953;SDS011;57276;51.364;12.376;2022-09-09T06:07:54;3.65;;;1.20;;
69953;SDS011;57276;51.364;12.376;2022-09-09T06:13:57;5.63;;;1.60;;
69953;SDS011;57276;51.364;12.376;2022-09-09T06:19:59;6.70;;;1.38;;
69953;SDS011;57276;51.364;12.376;2022-09-09T06:26:02;6.38;;;1.42;;
69953;SDS011;57276;51.364;12.376;2022-09-09T06:32:03;3.53;;;1.30;;
69953;SDS011;57276;51.364;12.376;2022-09-09T06:38:05;4.72;;;1.20;;
69953;SDS011;57276;51.364;12.376;2022-09-09T06:44:07;7.63;;;1.50;;
69953;SDS011;57276;51.364;12.376;2022-09-09T06:50:14;5.40;;;1.25;;
69953;SDS011;57276;51.364;12.376;2022-09-09T07:02:18;7.40;;;1.30;;
69953;SDS011;57276;51.364;12.376;2022-09-09T07:08:21;5.57;;;1.17;;
69953;SDS011;57276;51.364;12.376;2022-09-09T07:14:23;4.17;;;1.30;;
69953;SDS011;57276;51.364;12.376;2022-09-09T07:20:43;3.90;;;1.10;;
69953;SDS011;57276;51.364;12.376;2022-09-09T07:26:44;4.00;;;1.13;;
69953;SDS011;57276;51.364;12.376;2022-09-09T07:32:47;6.03;;;1.20;;
69953;SDS011;57276;51.364;12.376;2022-09-09T07:38:50;4.55;;;1.17;;
69953;SDS011;57276;51.364;12.376;2022-09-09T07:44:52;4.37;;;1.20;;
69953;SDS011;57276;51.364;12.376;2022-09-09T07:51:06;6.30;;;1.10;;
69953;SDS011;57276;51.364;12.376;2022-09-09T07:57:08;4.97;;;1.20;;
69953;SDS011;57276;51.364;12.376;2022-09-09T08:03:11;3.90;;;1.10;;
69953;SDS011;57276;51.364;12.376;2022-09-09T08:09:13;3.67;;;1.20;;
69953;SDS011;57276;51.364;12.376;2022-09-09T08:15:16;4.77;;;1.20;;
69953;SDS011;57276;51.364;12.376;2022-09-09T08:21:19;5.60;;;1.38;;
69953;SDS011;57276;51.364;12.376;2022-09-09T08:27:21;5.25;;;1.30;;
69953;SDS011;57276;51.364;12.376;2022-09-09T08:33:24;5.37;;;1.10;;
69953;SDS011;57276;51.364;12.376;2022-09-09T08:39:27;3.20;;;1.08;;
69953;SDS011;57276;51.364;12.376;2022-09-09T08:45:35;8.30;;;1.30;;
69953;SDS011;57276;51.364;12.376;2022-09-09T08:51:40;7.28;;;1.40;;
69953;SDS011;57276;51.364;12.376;2022-09-09T08:57:43;4.68;;;1.10;;
69953;SDS011;57276;51.364;12.376;2022-09-09T09:10:10;3.92;;;1.10;;
69953;SDS011;57276;51.364;12.376;2022-09-09T09:16:39;6.57;;;1.47;;
69953;SDS011;57276;51.364;12.376;2022-09-09T09:22:46;4.00;;;1.05;;
69953;SDS011;57276;51.364;12.376;2022-09-09T09:28:50;5.22;;;1.00;;
69953;SDS011;57276;51.364;12.376;2022-09-09T09:34:57;3.23;;;0.90;;
69953;SDS011;57276;51.364;12.376;2022-09-09T09:41:01;3.33;;;0.90;;
69953;SDS011;57276;51.364;12.376;2022-09-09T09:47:11;4.23;;;1.10;;
69953;SDS011;57276;51.364;12.376;2022-09-09T09:53:26;6.47;;;1.02;;
69953;SDS011;57276;51.364;12.376;2022-09-09T09:59:49;4.22;;;1.20;;
69953;SDS011;57276;51.364;12.376;2022-09-09T10:06:01;6.33;;;1.00;;
69953;SDS011;57276;51.364;12.376;2022-09-09T10:12:10;4.90;;;1.10;;
69953;SDS011;57276;51.364;12.376;2022-09-09T10:24:34;3.03;;;1.10;;
69953;SDS011;57276;51.364;12.376;2022-09-09T10:30:46;5.03;;;1.20;;
69953;SDS011;57276;51.364;12.376;2022-09-09T10:36:50;5.13;;;1.20;;
69953;SDS011;57276;51.364;12.376;2022-09-09T10:42:58;4.32;;;1.20;;
69953;SDS011;57276;51.364;12.376;2022-09-09T10:55:25;5.97;;;2.05;;
69953;SDS011;57276;51.364;12.376;2022-09-09T11:01:53;4.22;;;1.17;;
69953;SDS011;57276;51.364;12.376;2022-09-09T11:07:59;5.93;;;1.40;;
69953;SDS011;57276;51.364;12.376;2022-09-09T11:14:17;4.30;;;1.20;;
69953;SDS011;57276;51.364;12.376;2022-09-09T11:20:21;4.50;;;1.10;;
69953;SDS011;57276;51.364;12.376;2022-09-09T11:26:31;5.35;;;1.20;;
69953;SDS011;57276;51.364;12.376;2022-09-09T11:38:47;4.50;;;1.20;;
69953;SDS011;57276;51.364;12.376;2022-09-09T11:44:53;5.38;;;1.05;;
69953;SDS011;57276;51.364;12.376;2022-09-09T11:50:57;5.03;;;1.07;;
69953;SDS011;57276;51.364;12.376;2022-09-09T11:56:59;4.20;;;1.02;;
69953;SDS011;57276;51.364;12.376;2022-09-09T12:03:01;3.80;;;1.08;;
69953;SDS011;57276;51.364;12.376;2022-09-09T12:15:25;6.03;;;1.20;;
69953;SDS011;57276;51.364;12.376;2022-09-09T12:27:44;3.67;;;1.15;;
69953;SDS011;57276;51.364;12.376;2022-09-09T12:33:48;8.23;;;1.20;;
69953;SDS011;57276;51.364;12.376;2022-09-09T12:39:51;5.00;;;1.23;;
69953;SDS011;57276;51.364;12.376;2022-09-09T12:46:03;4.38;;;1.30;;
69953;SDS011;57276;51.364;12.376;2022-09-09T12:52:13;5.00;;;1.33;;
69953;SDS011;57276;51.364;12.376;2022-09-09T12:58:17;5.05;;;1.48;;
69953;SDS011;57276;51.364;12.376;2022-09-09T13:04:21;4.70;;;1.30;;
69953;SDS011;57276;51.364;12.376;2022-09-09T13:10:27;5.07;;;1.20;;
69953;SDS011;57276;51.364;12.376;2022-09-09T13:16:53;5.15;;;1.83;;
69953;SDS011;57276;51.364;12.376;2022-09-09T13:22:55;3.83;;;1.03;;
69953;SDS011;57276;51.364;12.376;2022-09-09T13:29:16;3.70;;;1.25;;
69953;SDS011;57276;51.364;12.376;2022-09-09T13:35:22;5.40;;;1.17;;
69953;SDS011;57276;51.364;12.376;2022-09-09T13:41:34;4.37;;;1.10;;
69953;SDS011;57276;51.364;12.376;2022-09-09T13:47:36;4.90;;;1.00;;
69953;SDS011;57276;51.364;12.376;2022-09-09T13:53:37;4.23;;;1.30;;
69953;SDS011;57276;51.364;12.376;2022-09-09T13:59:39;4.60;;;1.10;;
69953;SDS011;57276;51.364;12.376;2022-09-09T14:06:04;3.65;;;0.90;;
69953;SDS011;57276;51.364;12.376;2022-09-09T14:12:08;3.17;;;0.80;;
69953;SDS011;57276;51.364;12.376;2022-09-09T14:18:11;3.25;;;0.90;;
69953;SDS011;57276;51.364;12.376;2022-09-09T14:24:14;5.55;;;0.82;;
69953;SDS011;57276;51.364;12.376;2022-09-09T14:30:15;4.10;;;0.90;;
69953;SDS011;57276;51.364;12.376;2022-09-09T14:36:17;2.83;;;0.80;;
69953;SDS011;57276;51.364;12.376;2022-09-09T14:42:19;4.87;;;1.03;;
69953;SDS011;57276;51.364;12.376;2022-09-09T14:48:20;3.85;;;0.82;;
69953;SDS011;57276;51.364;12.376;2022-09-09T14:54:22;4.32;;;0.82;;
69953;SDS011;57276;51.364;12.376;2022-09-09T15:00:24;3.43;;;0.93;;
69953;SDS011;57276;51.364;12.376;2022-09-09T15:06:32;3.15;;;0.90;;
69953;SDS011;57276;51.364;12.376;2022-09-09T15:12:38;4.13;;;1.00;;
69953;SDS011;57276;51.364;12.376;2022-09-09T15:18:40;3.08;;;0.90;;
69953;SDS011;57276;51.364;12.376;2022-09-09T15:24:44;4.40;;;0.90;;
69953;SDS011;57276;51.364;12.376;2022-09-09T15:30:49;3.77;;;1.00;;
69953;SDS011;57276;51.364;12.376;2022-09-09T15:36:50;3.88;;;1.30;;
69953;SDS011;57276;51.364;12.376;2022-09-09T15:42:52;3.47;;;1.17;;
69953;SDS011;57276;51.364;12.376;2022-09-09T15:48:54;4.32;;;1.52;;
69953;SDS011;57276;51.364;12.376;2022-09-09T15:54:57;3.45;;;1.05;;
69953;SDS011;57276;51.364;12.376;2022-09-09T16:01:03;2.50;;;0.80;;
69953;SDS011;57276;51.364;12.376;2022-09-09T16:07:05;3.00;;;1.00;;
69953;SDS011;57276;51.364;12.376;2022-09-09T16:13:07;4.27;;;1.00;;
69953;SDS011;57276;51.364;12.376;2022-09-09T16:19:09;4.30;;;0.77;;
69953;SDS011;57276;51.364;12.376;2022-09-09T16:25:11;2.40;;;0.90;;
69953;SDS011;57276;51.364;12.376;2022-09-09T16:31:14;4.07;;;0.97;;
69953;SDS011;57276;51.364;12.376;2022-09-09T16:37:16;6.22;;;1.75;;
69953;SDS011;57276;51.364;12.376;2022-09-09T16:43:18;8.17;;;1.87;;
69953;SDS011;57276;51.364;12.376;2022-09-09T16:49:20;4.00;;;1.20;;
69953;SDS011;57276;51.364;12.376;2022-09-09T16:55:22;3.25;;;0.90;;
69953;SDS011;57276;51.364;12.376;2022-09-09T17:01:27;4.00;;;1.00;;
69953;SDS011;57276;51.364;12.376;2022-09-09T17:07:28;4.68;;;1.05;;
69953;SDS011;57276;51.364;12.376;2022-09-09T17:13:31;4.03;;;1.10;;
69953;SDS011;57276;51.364;12.376;2022-09-09T17:19:33;7.07;;;1.20;;
69953;SDS011;57276;51.364;12.376;2022-09-09T17:25:35;3.97;;;1.17;;
69953;SDS011;57276;51.364;12.376;2022-09-09T17:31:36;4.23;;;1.00;;
69953;SDS011;57276;51.364;12.376;2022-09-09T17:37:38;4.55;;;0.85;;
69953;SDS011;57276;51.364;12.376;2022-09-09T17:43:40;3.53;;;0.80;;
69953;SDS011;57276;51.364;12.376;2022-09-09T17:49:41;5.45;;;0.90;;
69953;SDS011;57276;51.364;12.376;2022-09-09T17:55:43;3.72;;;0.80;;
69953;SDS011;57276;51.364;12.376;2022-09-09T18:01:46;3.70;;;0.90;;
69953;SDS011;57276;51.364;12.376;2022-09-09T18:07:47;4.45;;;1.27;;
69953;SDS011;57276;51.364;12.376;2022-09-09T18:13:50;2.83;;;1.00;;
69953;SDS011;57276;51.364;12.376;2022-09-09T18:19:52;4.80;;;1.50;;
69953;SDS011;57276;51.364;12.376;2022-09-09T18:25:53;4.05;;;1.10;;
69953;SDS011;57276;51.364;12.376;2022-09-09T18:31:55;3.63;;;1.30;;
69953;SDS011;57276;51.364;12.376;2022-09-09T18:37:57;4.32;;;1.42;;
69953;SDS011;57276;51.364;12.376;2022-09-09T18:43:59;6.57;;;1.73;;
69953;SDS011;57276;51.364;12.376;2022-09-09T18:50:01;3.63;;;1.25;;
69953;SDS011;57276;51.364;12.376;2022-09-09T18:56:03;5.50;;;1.20;;
69953;SDS011;57276;51.364;12.376;2022-09-09T19:02:05;4.30;;;1.60;;
69953;SDS011;57276;51.364;12.376;2022-09-09T19:08:07;4.30;;;1.60;;
69953;SDS011;57276;51.364;12.376;2022-09-09T19:14:10;4.87;;;1.53;;
69953;SDS011;57276;51.364;12.376;2022-09-09T19:20:12;4.80;;;1.40;;
69953;SDS011;57276;51.364;12.376;2022-09-09T19:26:14;5.85;;;1.60;;
69953;SDS011;57276;51.364;12.376;2022-09-09T19:32:18;3.20;;;1.20;;
69953;SDS011;57276;51.364;12.376;2022-09-09T19:38:40;4.20;;;1.33;;
69953;SDS011;57276;51.364;12.376;2022-09-09T19:44:42;5.03;;;1.60;;
69953;SDS011;57276;51.364;12.376;2022-09-09T19:50:43;5.85;;;1.55;;
69953;SDS011;57276;51.364;12.376;2022-09-09T19:56:45;4.95;;;1.55;;
69953;SDS011;57276;51.364;12.376;2022-09-09T20:02:46;4.13;;;1.20;;
69953;SDS011;57276;51.364;12.376;2022-09-09T20:09:12;6.03;;;1.20;;
69953;SDS011;57276;51.364;12.376;2022-09-09T20:15:17;4.77;;;1.40;;
69953;SDS011;57276;51.364;12.376;2022-09-09T20:21:19;5.00;;;1.10;;
69953;SDS011;57276;51.364;12.376;2022-09-09T20:27:21;3.47;;;1.00;;
69953;SDS011;57276;51.364;12.376;2022-09-09T20:33:22;3.60;;;1.10;;
69953;SDS011;57276;51.364;12.376;2022-09-09T20:39:24;3.33;;;1.20;;
69953;SDS011;57276;51.364;12.376;2022-09-09T20:45:26;3.63;;;1.10;;
69953;SDS011;57276;51.364;12.376;2022-09-09T20:51:28;3.83;;;1.20;;
69953;SDS011;57276;51.364;12.376;2022-09-09T20:57:29;4.15;;;1.42;;
69953;SDS011;57276;51.364;12.376;2022-09-09T21:03:32;5.97;;;1.50;;
69953;SDS011;57276;51.364;12.376;2022-09-09T21:09:37;4.25;;;1.30;;
69953;SDS011;57276;51.364;12.376;2022-09-09T21:15:38;4.50;;;1.33;;
69953;SDS011;57276;51.364;12.376;2022-09-09T21:21:41;4.60;;;1.50;;
69953;SDS011;57276;51.364;12.376;2022-09-09T21:27:42;7.13;;;1.17;;
69953;SDS011;57276;51.364;12.376;2022-09-09T21:33:44;4.03;;;1.30;;
69953;SDS011;57276;51.364;12.376;2022-09-09T21:39:46;5.07;;;1.30;;
69953;SDS011;57276;51.364;12.376;2022-09-09T21:45:48;3.43;;;1.20;;
69953;SDS011;57276;51.364;12.376;2022-09-09T21:51:50;6.05;;;1.50;;
69953;SDS011;57276;51.364;12.376;2022-09-09T21:57:52;3.10;;;1.10;;
69953;SDS011;57276;51.364;12.376;2022-09-09T22:03:53;3.10;;;1.10;;
69953;SDS011;57276;51.364;12.376;2022-09-09T22:09:55;7.15;;;1.90;;
69953;SDS011;57276;51.364;12.376;2022-09-09T22:15:56;5.23;;;1.40;;
69953;SDS011;57276;51.364;12.376;2022-09-09T22:21:58;3.88;;;1.35;;
69953;SDS011;57276;51.364;12.376;2022-09-09T22:28:00;5.97;;;1.33;;
69953;SDS011;57276;51.364;12.376;2022-09-09T22:34:02;6.63;;;1.93;;
69953;SDS011;57276;51.364;12.376;2022-09-09T22:40:03;3.95;;;1.50;;
69953;SDS011;57276;51.364;12.376;2022-09-09T22:46:05;4.23;;;1.40;;
69953;SDS011;57276;51.364;12.376;2022-09-09T22:52:06;3.35;;;1.10;;
69953;SDS011;57276;51.364;12.376;2022-09-09T22:58:10;3.38;;;1.10;;
69953;SDS011;57276;51.364;12.376;2022-09-09T23:04:12;4.90;;;1.50;;
69953;SDS011;57276;51.364;12.376;2022-09-09T23:10:13;4.70;;;1.40;;
69953;SDS011;57276;51.364;12.376;2022-09-09T23:16:16;6.30;;;1.57;;
69953;SDS011;57276;51.364;12.376;2022-09-09T23:22:18;3.50;;;1.08;;
69953;SDS011;57276;51.364;12.376;2022-09-09T23:28:21;4.10;;;1.00;;
69953;SDS011;57276;51.364;12.376;2022-09-09T23:34:22;6.30;;;1.50;;
69953;SDS011;57276;51.364;12.376;2022-09-09T23:40:24;3.78;;;1.38;;
69953;SDS011;57276;51.364;12.376;2022-09-09T23:46:27;4.30;;;1.53;;
69953;SDS011;57276;51.364;12.376;2022-09-09T23:52:29;5.97;;;1.35;;
69953;SDS011;57276;51.364;12.376;2022-09-09T23:58:32;4.75;;;1.40;;
